sensor_id;sensor_type;location;lat;lon;timestamp;P1;durP1;ratioP1;P2;durP2;ratioP2
74510;SDS011;62991;50.040;18.400;2024-03-23T00:54:33;22.77;;;9.05;;
74510;SDS011;62991;50.040;18.400;2024-03-23T00:57:34;22.60;;;9.52;;
74510;SDS011;62991;50.040;18.400;2024-03-23T01:00:34;25.20;;;9.73;;
74510;SDS011;62991;50.040;18.400;2024-03-23T01:03:35;22.65;;;9.38;;
74510;SDS011;62991;50.040;18.400;2024-03-23T01:06:36;24.30;;;10.45;;
74510;SDS011;62991;50.040;18.400;2024-03-23T01:09:37;26.23;;;9.75;;
74510;SDS011;62991;50.040;18.400;2024-03-23T01:12:38;31.55;;;11.23;;
74510;SDS011;62991;50.040;18.400;2024-03-23T01:15:39;26.40;;;10.00;;
74510;SDS011;62991;50.040;18.400;2024-03-23T01:18:40;23.05;;;9.63;;
74510;SDS011;62991;50.040;18.400;2024-03-23T01:21:41;33.92;;;12.52;;
74510;SDS011;62991;50.040;18.400;2024-03-23T01:24:43;35.88;;;11.82;;
74510;SDS011;62991;50.040;18.400;2024-03-23T01:27:44;31.63;;;10.80;;
74510;SDS011;62991;50.040;18.400;2024-03-23T01:30:44;20.77;;;8.50;;
74510;SDS011;62991;50.040;18.400;2024-03-23T01:33:45;22.60;;;9.10;;
74510;SDS011;62991;50.040;18.400;2024-03-23T01:36:46;21.10;;;8.23;;
74510;SDS011;62991;50.040;18.400;2024-03-23T01:39:47;24.10;;;8.60;;
74510;SDS011;62991;50.040;18.400;2024-03-23T01:42:57;20.00;;;7.85;;
74510;SDS011;62991;50.040;18.400;2024-03-23T01:46:05;25.15;;;9.07;;
74510;SDS011;62991;50.040;18.400;2024-03-23T01:49:07;14.25;;;6.25;;
74510;SDS011;62991;50.040;18.400;2024-03-23T01:52:08;14.70;;;7.05;;
74510;SDS011;62991;50.040;18.400;2024-03-23T01:55:09;13.07;;;5.88;;
74510;SDS011;62991;50.040;18.400;2024-03-23T01:58:10;17.60;;;6.85;;
74510;SDS011;62991;50.040;18.400;2024-03-23T02:01:10;12.95;;;6.40;;
74510;SDS011;62991;50.040;18.400;2024-03-23T02:04:11;26.67;;;9.40;;
74510;SDS011;62991;50.040;18.400;2024-03-23T02:07:12;19.40;;;8.00;;
74510;SDS011;62991;50.040;18.400;2024-03-23T02:10:12;19.73;;;7.97;;
74510;SDS011;62991;50.040;18.400;2024-03-23T02:13:14;21.02;;;7.85;;
74510;SDS011;62991;50.040;18.400;2024-03-23T02:16:14;14.90;;;6.18;;
74510;SDS011;62991;50.040;18.400;2024-03-23T02:19:15;17.10;;;6.88;;
74510;SDS011;62991;50.040;18.400;2024-03-23T02:22:16;17.67;;;6.93;;
74510;SDS011;62991;50.040;18.400;2024-03-23T02:25:17;10.98;;;4.68;;
74510;SDS011;62991;50.040;18.400;2024-03-23T02:28:17;11.65;;;4.53;;
74510;SDS011;62991;50.040;18.400;2024-03-23T02:31:18;11.52;;;4.78;;
74510;SDS011;62991;50.040;18.400;2024-03-23T02:34:19;16.52;;;5.60;;
74510;SDS011;62991;50.040;18.400;2024-03-23T02:37:19;12.60;;;5.55;;
74510;SDS011;62991;50.040;18.400;2024-03-23T02:40:20;13.30;;;5.78;;
74510;SDS011;62991;50.040;18.400;2024-03-23T02:43:21;12.68;;;5.57;;
74510;SDS011;62991;50.040;18.400;2024-03-23T02:46:22;14.02;;;6.03;;
74510;SDS011;62991;50.040;18.400;2024-03-23T02:49:22;9.90;;;4.28;;
74510;SDS011;62991;50.040;18.400;2024-03-23T02:52:23;11.27;;;3.97;;
74510;SDS011;62991;50.040;18.400;2024-03-23T02:55:24;13.55;;;6.43;;
74510;SDS011;62991;50.040;18.400;2024-03-23T02:58:24;19.33;;;6.63;;
74510;SDS011;62991;50.040;18.400;2024-03-23T03:01:25;16.83;;;6.95;;
74510;SDS011;62991;50.040;18.400;2024-03-23T03:04:26;13.98;;;6.35;;
74510;SDS011;62991;50.040;18.400;2024-03-23T03:07:26;17.27;;;6.80;;
74510;SDS011;62991;50.040;18.400;2024-03-23T03:10:27;16.00;;;6.30;;
74510;SDS011;62991;50.040;18.400;2024-03-23T03:13:28;11.18;;;4.90;;
74510;SDS011;62991;50.040;18.400;2024-03-23T03:16:28;10.82;;;5.75;;
74510;SDS011;62991;50.040;18.400;2024-03-23T03:19:29;10.65;;;5.07;;
74510;SDS011;62991;50.040;18.400;2024-03-23T03:22:30;11.45;;;5.13;;
74510;SDS011;62991;50.040;18.400;2024-03-23T03:25:31;11.18;;;5.00;;
74510;SDS011;62991;50.040;18.400;2024-03-23T03:28:31;11.52;;;5.15;;
74510;SDS011;62991;50.040;18.400;2024-03-23T03:31:33;9.15;;;4.50;;
74510;SDS011;62991;50.040;18.400;2024-03-23T03:34:33;8.98;;;4.53;;
74510;SDS011;62991;50.040;18.400;2024-03-23T03:37:34;12.43;;;5.45;;
74510;SDS011;62991;50.040;18.400;2024-03-23T03:40:35;8.35;;;4.95;;
74510;SDS011;62991;50.040;18.400;2024-03-23T03:43:35;8.02;;;4.03;;
74510;SDS011;62991;50.040;18.400;2024-03-23T03:46:36;10.40;;;5.00;;
74510;SDS011;62991;50.040;18.400;2024-03-23T03:49:37;9.02;;;4.03;;
74510;SDS011;62991;50.040;18.400;2024-03-23T03:52:38;8.15;;;4.55;;
74510;SDS011;62991;50.040;18.400;2024-03-23T03:55:38;12.13;;;4.90;;
74510;SDS011;62991;50.040;18.400;2024-03-23T03:58:39;13.80;;;5.68;;
74510;SDS011;62991;50.040;18.400;2024-03-23T04:01:40;12.50;;;5.75;;
74510;SDS011;62991;50.040;18.400;2024-03-23T04:04:40;15.10;;;5.88;;
74510;SDS011;62991;50.040;18.400;2024-03-23T04:07:42;13.88;;;4.60;;
74510;SDS011;62991;50.040;18.400;2024-03-23T04:10:42;16.27;;;6.63;;
74510;SDS011;62991;50.040;18.400;2024-03-23T04:13:43;15.95;;;5.95;;
74510;SDS011;62991;50.040;18.400;2024-03-23T04:16:44;16.25;;;5.60;;
74510;SDS011;62991;50.040;18.400;2024-03-23T04:19:44;9.35;;;4.40;;
74510;SDS011;62991;50.040;18.400;2024-03-23T04:22:46;10.52;;;5.10;;
74510;SDS011;62991;50.040;18.400;2024-03-23T04:25:46;16.42;;;6.75;;
74510;SDS011;62991;50.040;18.400;2024-03-23T04:28:47;14.57;;;6.47;;
74510;SDS011;62991;50.040;18.400;2024-03-23T04:31:48;13.32;;;6.43;;
74510;SDS011;62991;50.040;18.400;2024-03-23T04:34:48;10.98;;;4.78;;
74510;SDS011;62991;50.040;18.400;2024-03-23T04:37:49;14.95;;;5.97;;
74510;SDS011;62991;50.040;18.400;2024-03-23T04:40:56;13.77;;;5.38;;
74510;SDS011;62991;50.040;18.400;2024-03-23T04:43:59;13.63;;;5.95;;
74510;SDS011;62991;50.040;18.400;2024-03-23T04:47:00;10.40;;;4.47;;
74510;SDS011;62991;50.040;18.400;2024-03-23T04:50:02;9.13;;;4.30;;
74510;SDS011;62991;50.040;18.400;2024-03-23T04:53:03;12.45;;;4.57;;
74510;SDS011;62991;50.040;18.400;2024-03-23T04:56:04;13.13;;;5.15;;
74510;SDS011;62991;50.040;18.400;2024-03-23T04:59:05;13.55;;;6.10;;
74510;SDS011;62991;50.040;18.400;2024-03-23T05:02:05;8.10;;;4.03;;
74510;SDS011;62991;50.040;18.400;2024-03-23T05:05:06;8.27;;;4.07;;
74510;SDS011;62991;50.040;18.400;2024-03-23T05:08:07;10.55;;;5.00;;
74510;SDS011;62991;50.040;18.400;2024-03-23T05:11:08;10.95;;;4.97;;
74510;SDS011;62991;50.040;18.400;2024-03-23T05:14:09;13.25;;;5.72;;
74510;SDS011;62991;50.040;18.400;2024-03-23T05:17:11;12.88;;;5.65;;
74510;SDS011;62991;50.040;18.400;2024-03-23T05:20:11;10.88;;;5.88;;
74510;SDS011;62991;50.040;18.400;2024-03-23T05:23:12;9.45;;;5.05;;
74510;SDS011;62991;50.040;18.400;2024-03-23T05:26:13;12.00;;;5.18;;
74510;SDS011;62991;50.040;18.400;2024-03-23T05:29:14;9.20;;;5.00;;
74510;SDS011;62991;50.040;18.400;2024-03-23T05:32:17;12.52;;;4.82;;
74510;SDS011;62991;50.040;18.400;2024-03-23T05:35:18;10.85;;;5.00;;
74510;SDS011;62991;50.040;18.400;2024-03-23T05:38:18;10.27;;;4.90;;
74510;SDS011;62991;50.040;18.400;2024-03-23T05:41:20;12.18;;;5.85;;
74510;SDS011;62991;50.040;18.400;2024-03-23T05:44:22;12.27;;;5.70;;
74510;SDS011;62991;50.040;18.400;2024-03-23T05:47:22;19.85;;;6.70;;
74510;SDS011;62991;50.040;18.400;2024-03-23T05:50:23;25.17;;;10.43;;
74510;SDS011;62991;50.040;18.400;2024-03-23T05:53:24;24.38;;;12.25;;
74510;SDS011;62991;50.040;18.400;2024-03-23T05:56:25;19.98;;;8.80;;
74510;SDS011;62991;50.040;18.400;2024-03-23T05:59:26;17.67;;;9.55;;
74510;SDS011;62991;50.040;18.400;2024-03-23T06:02:27;15.18;;;7.68;;
74510;SDS011;62991;50.040;18.400;2024-03-23T06:05:27;24.17;;;11.95;;
74510;SDS011;62991;50.040;18.400;2024-03-23T06:08:28;18.17;;;9.32;;
74510;SDS011;62991;50.040;18.400;2024-03-23T06:11:29;20.05;;;9.02;;
74510;SDS011;62991;50.040;18.400;2024-03-23T06:14:29;18.15;;;10.77;;
74510;SDS011;62991;50.040;18.400;2024-03-23T06:17:30;19.83;;;9.60;;
74510;SDS011;62991;50.040;18.400;2024-03-23T06:20:31;22.80;;;10.13;;
74510;SDS011;62991;50.040;18.400;2024-03-23T06:23:31;19.48;;;6.63;;
74510;SDS011;62991;50.040;18.400;2024-03-23T06:26:32;16.58;;;7.10;;
74510;SDS011;62991;50.040;18.400;2024-03-23T06:29:33;11.68;;;5.43;;
74510;SDS011;62991;50.040;18.400;2024-03-23T06:32:33;9.88;;;5.03;;
74510;SDS011;62991;50.040;18.400;2024-03-23T06:35:34;15.43;;;5.75;;
74510;SDS011;62991;50.040;18.400;2024-03-23T06:38:35;12.15;;;5.25;;
74510;SDS011;62991;50.040;18.400;2024-03-23T06:41:36;12.68;;;5.22;;
74510;SDS011;62991;50.040;18.400;2024-03-23T06:44:36;13.40;;;5.72;;
74510;SDS011;62991;50.040;18.400;2024-03-23T06:47:37;14.65;;;6.97;;
74510;SDS011;62991;50.040;18.400;2024-03-23T06:50:38;18.30;;;7.30;;
74510;SDS011;62991;50.040;18.400;2024-03-23T06:53:39;16.77;;;5.78;;
74510;SDS011;62991;50.040;18.400;2024-03-23T06:56:39;12.40;;;4.15;;
74510;SDS011;62991;50.040;18.400;2024-03-23T06:59:40;18.30;;;7.03;;
74510;SDS011;62991;50.040;18.400;2024-03-23T07:02:41;12.13;;;3.60;;
74510;SDS011;62991;50.040;18.400;2024-03-23T07:05:41;5.60;;;2.63;;
74510;SDS011;62991;50.040;18.400;2024-03-23T07:08:42;17.55;;;6.03;;
74510;SDS011;62991;50.040;18.400;2024-03-23T07:11:43;14.85;;;5.18;;
74510;SDS011;62991;50.040;18.400;2024-03-23T07:14:44;7.15;;;2.95;;
74510;SDS011;62991;50.040;18.400;2024-03-23T07:17:48;8.20;;;3.50;;
74510;SDS011;62991;50.040;18.400;2024-03-23T07:20:55;12.27;;;5.18;;
74510;SDS011;62991;50.040;18.400;2024-03-23T07:23:59;10.10;;;4.05;;
74510;SDS011;62991;50.040;18.400;2024-03-23T07:26:59;7.35;;;3.83;;
74510;SDS011;62991;50.040;18.400;2024-03-23T07:30:00;14.68;;;5.05;;
74510;SDS011;62991;50.040;18.400;2024-03-23T07:33:01;11.65;;;4.32;;
74510;SDS011;62991;50.040;18.400;2024-03-23T07:36:02;9.95;;;4.50;;
74510;SDS011;62991;50.040;18.400;2024-03-23T07:39:03;9.40;;;4.78;;
74510;SDS011;62991;50.040;18.400;2024-03-23T07:42:04;4.50;;;2.80;;
74510;SDS011;62991;50.040;18.400;2024-03-23T07:45:05;8.23;;;4.22;;
74510;SDS011;62991;50.040;18.400;2024-03-23T07:48:06;9.27;;;3.60;;
74510;SDS011;62991;50.040;18.400;2024-03-23T07:51:07;8.50;;;3.22;;
74510;SDS011;62991;50.040;18.400;2024-03-23T07:54:10;10.80;;;4.40;;
74510;SDS011;62991;50.040;18.400;2024-03-23T07:57:11;9.63;;;3.60;;
74510;SDS011;62991;50.040;18.400;2024-03-23T08:00:11;12.52;;;4.55;;
74510;SDS011;62991;50.040;18.400;2024-03-23T08:03:13;10.20;;;3.33;;
74510;SDS011;62991;50.040;18.400;2024-03-23T08:09:15;5.95;;;3.10;;
74510;SDS011;62991;50.040;18.400;2024-03-23T08:12:16;10.45;;;4.93;;
74510;SDS011;62991;50.040;18.400;2024-03-23T08:15:17;10.98;;;4.53;;
74510;SDS011;62991;50.040;18.400;2024-03-23T08:18:17;9.00;;;3.67;;
74510;SDS011;62991;50.040;18.400;2024-03-23T08:21:18;9.48;;;4.18;;
74510;SDS011;62991;50.040;18.400;2024-03-23T08:24:19;12.65;;;4.70;;
74510;SDS011;62991;50.040;18.400;2024-03-23T08:27:20;13.73;;;5.28;;
74510;SDS011;62991;50.040;18.400;2024-03-23T08:30:20;10.52;;;4.63;;
74510;SDS011;62991;50.040;18.400;2024-03-23T08:33:22;12.63;;;4.47;;
74510;SDS011;62991;50.040;18.400;2024-03-23T08:39:26;6.43;;;3.10;;
74510;SDS011;62991;50.040;18.400;2024-03-23T08:42:27;10.45;;;4.85;;
74510;SDS011;62991;50.040;18.400;2024-03-23T08:45:28;8.88;;;3.60;;
74510;SDS011;62991;50.040;18.400;2024-03-23T08:48:28;10.13;;;4.55;;
74510;SDS011;62991;50.040;18.400;2024-03-23T08:51:29;7.05;;;3.78;;
74510;SDS011;62991;50.040;18.400;2024-03-23T08:54:30;19.38;;;5.43;;
74510;SDS011;62991;50.040;18.400;2024-03-23T08:57:31;10.45;;;4.40;;
74510;SDS011;62991;50.040;18.400;2024-03-23T09:00:32;7.55;;;3.15;;
74510;SDS011;62991;50.040;18.400;2024-03-23T09:03:33;7.25;;;3.28;;
74510;SDS011;62991;50.040;18.400;2024-03-23T09:06:35;12.10;;;4.38;;
74510;SDS011;62991;50.040;18.400;2024-03-23T09:09:37;8.43;;;3.28;;
74510;SDS011;62991;50.040;18.400;2024-03-23T09:12:39;10.00;;;3.42;;
74510;SDS011;62991;50.040;18.400;2024-03-23T09:15:46;6.35;;;3.03;;
74510;SDS011;62991;50.040;18.400;2024-03-23T09:18:51;10.77;;;3.80;;
74510;SDS011;62991;50.040;18.400;2024-03-23T09:21:52;14.40;;;5.20;;
74510;SDS011;62991;50.040;18.400;2024-03-23T09:24:53;4.93;;;2.20;;
74510;SDS011;62991;50.040;18.400;2024-03-23T09:27:54;11.60;;;3.97;;
74510;SDS011;62991;50.040;18.400;2024-03-23T09:30:54;7.45;;;3.42;;
74510;SDS011;62991;50.040;18.400;2024-03-23T09:33:55;11.68;;;3.78;;
74510;SDS011;62991;50.040;18.400;2024-03-23T09:36:56;8.90;;;3.40;;
74510;SDS011;62991;50.040;18.400;2024-03-23T09:39:56;7.63;;;3.55;;
74510;SDS011;62991;50.040;18.400;2024-03-23T09:42:57;7.65;;;3.55;;
74510;SDS011;62991;50.040;18.400;2024-03-23T09:45:58;9.13;;;3.63;;
74510;SDS011;62991;50.040;18.400;2024-03-23T09:48:58;11.10;;;5.03;;
74510;SDS011;62991;50.040;18.400;2024-03-23T09:51:59;10.02;;;4.00;;
74510;SDS011;62991;50.040;18.400;2024-03-23T09:55:00;8.13;;;3.38;;
74510;SDS011;62991;50.040;18.400;2024-03-23T09:58:01;5.50;;;2.63;;
74510;SDS011;62991;50.040;18.400;2024-03-23T10:01:02;7.80;;;3.25;;
74510;SDS011;62991;50.040;18.400;2024-03-23T10:04:04;9.77;;;4.38;;
74510;SDS011;62991;50.040;18.400;2024-03-23T10:10:13;13.10;;;4.95;;
74510;SDS011;62991;50.040;18.400;2024-03-23T10:13:26;6.95;;;3.20;;
74510;SDS011;62991;50.040;18.400;2024-03-23T10:16:29;7.13;;;2.95;;
74510;SDS011;62991;50.040;18.400;2024-03-23T10:19:30;5.35;;;2.28;;
74510;SDS011;62991;50.040;18.400;2024-03-23T10:22:31;4.15;;;2.38;;
74510;SDS011;62991;50.040;18.400;2024-03-23T10:25:38;4.65;;;2.13;;
74510;SDS011;62991;50.040;18.400;2024-03-23T10:28:52;9.48;;;3.28;;
74510;SDS011;62991;50.040;18.400;2024-03-23T10:31:53;9.20;;;4.13;;
74510;SDS011;62991;50.040;18.400;2024-03-23T10:34:55;8.15;;;2.92;;
74510;SDS011;62991;50.040;18.400;2024-03-23T10:37:55;6.63;;;2.70;;
74510;SDS011;62991;50.040;18.400;2024-03-23T10:41:04;10.43;;;3.38;;
74510;SDS011;62991;50.040;18.400;2024-03-23T10:44:05;5.65;;;2.60;;
74510;SDS011;62991;50.040;18.400;2024-03-23T10:47:06;9.20;;;4.22;;
74510;SDS011;62991;50.040;18.400;2024-03-23T10:50:07;6.47;;;3.05;;
74510;SDS011;62991;50.040;18.400;2024-03-23T10:53:08;6.75;;;2.15;;
74510;SDS011;62991;50.040;18.400;2024-03-23T11:06:38;5.20;;;2.92;;
74510;SDS011;62991;50.040;18.400;2024-03-23T11:09:42;4.90;;;1.95;;
74510;SDS011;62991;50.040;18.400;2024-03-23T11:12:46;6.28;;;2.88;;
74510;SDS011;62991;50.040;18.400;2024-03-23T11:15:47;5.82;;;2.80;;
74510;SDS011;62991;50.040;18.400;2024-03-23T11:18:48;7.75;;;3.28;;
74510;SDS011;62991;50.040;18.400;2024-03-23T11:21:52;4.43;;;2.47;;
74510;SDS011;62991;50.040;18.400;2024-03-23T11:24:53;5.15;;;2.38;;
74510;SDS011;62991;50.040;18.400;2024-03-23T11:27:57;2.65;;;1.50;;
74510;SDS011;62991;50.040;18.400;2024-03-23T11:31:11;7.63;;;2.95;;
74510;SDS011;62991;50.040;18.400;2024-03-23T11:34:11;3.20;;;1.83;;
74510;SDS011;62991;50.040;18.400;2024-03-23T11:37:13;3.95;;;2.42;;
74510;SDS011;62991;50.040;18.400;2024-03-23T11:40:17;5.72;;;2.78;;
74510;SDS011;62991;50.040;18.400;2024-03-23T11:43:19;4.68;;;2.35;;
74510;SDS011;62991;50.040;18.400;2024-03-23T11:46:22;4.10;;;2.17;;
74510;SDS011;62991;50.040;18.400;2024-03-23T11:49:25;4.13;;;1.98;;
74510;SDS011;62991;50.040;18.400;2024-03-23T11:52:27;4.65;;;2.40;;
74510;SDS011;62991;50.040;18.400;2024-03-23T11:55:27;10.45;;;2.75;;
74510;SDS011;62991;50.040;18.400;2024-03-23T11:58:28;8.35;;;2.25;;
74510;SDS011;62991;50.040;18.400;2024-03-23T12:01:29;5.38;;;1.90;;
74510;SDS011;62991;50.040;18.400;2024-03-23T12:04:30;3.85;;;1.80;;
74510;SDS011;62991;50.040;18.400;2024-03-23T12:07:32;4.78;;;2.10;;
74510;SDS011;62991;50.040;18.400;2024-03-23T12:10:32;5.93;;;2.53;;
74510;SDS011;62991;50.040;18.400;2024-03-23T12:13:33;4.03;;;2.10;;
74510;SDS011;62991;50.040;18.400;2024-03-23T12:16:34;4.63;;;2.00;;
74510;SDS011;62991;50.040;18.400;2024-03-23T12:19:34;4.90;;;1.95;;
74510;SDS011;62991;50.040;18.400;2024-03-23T12:22:35;4.00;;;2.00;;
74510;SDS011;62991;50.040;18.400;2024-03-23T12:25:36;3.83;;;1.80;;
74510;SDS011;62991;50.040;18.400;2024-03-23T12:28:37;3.28;;;1.67;;
74510;SDS011;62991;50.040;18.400;2024-03-23T12:31:38;4.07;;;2.00;;
74510;SDS011;62991;50.040;18.400;2024-03-23T12:34:39;4.22;;;2.25;;
74510;SDS011;62991;50.040;18.400;2024-03-23T12:37:40;6.53;;;2.22;;
74510;SDS011;62991;50.040;18.400;2024-03-23T12:40:40;6.38;;;2.58;;
74510;SDS011;62991;50.040;18.400;2024-03-23T12:43:41;3.97;;;2.22;;
74510;SDS011;62991;50.040;18.400;2024-03-23T12:46:42;6.10;;;2.00;;
74510;SDS011;62991;50.040;18.400;2024-03-23T12:49:42;7.57;;;2.50;;
74510;SDS011;62991;50.040;18.400;2024-03-23T12:52:43;22.40;;;6.35;;
74510;SDS011;62991;50.040;18.400;2024-03-23T12:55:44;12.40;;;3.45;;
74510;SDS011;62991;50.040;18.400;2024-03-23T12:58:44;5.10;;;2.03;;
74510;SDS011;62991;50.040;18.400;2024-03-23T13:01:45;8.52;;;2.83;;
74510;SDS011;62991;50.040;18.400;2024-03-23T13:04:46;18.63;;;5.60;;
74510;SDS011;62991;50.040;18.400;2024-03-23T13:07:50;28.63;;;9.02;;
74510;SDS011;62991;50.040;18.400;2024-03-23T13:10:54;8.15;;;3.35;;
74510;SDS011;62991;50.040;18.400;2024-03-23T13:13:55;6.50;;;2.78;;
74510;SDS011;62991;50.040;18.400;2024-03-23T13:16:56;9.93;;;3.45;;
74510;SDS011;62991;50.040;18.400;2024-03-23T13:19:56;4.00;;;1.83;;
74510;SDS011;62991;50.040;18.400;2024-03-23T13:22:57;4.40;;;2.03;;
74510;SDS011;62991;50.040;18.400;2024-03-23T13:25:58;4.22;;;1.52;;
74510;SDS011;62991;50.040;18.400;2024-03-23T13:28:58;4.18;;;1.15;;
74510;SDS011;62991;50.040;18.400;2024-03-23T13:31:59;3.13;;;1.20;;
74510;SDS011;62991;50.040;18.400;2024-03-23T13:35:00;2.95;;;1.08;;
74510;SDS011;62991;50.040;18.400;2024-03-23T13:38:00;3.15;;;0.98;;
74510;SDS011;62991;50.040;18.400;2024-03-23T13:41:01;1.65;;;1.00;;
74510;SDS011;62991;50.040;18.400;2024-03-23T13:44:04;2.92;;;1.73;;
74510;SDS011;62991;50.040;18.400;2024-03-23T13:47:06;1.63;;;0.85;;
74510;SDS011;62991;50.040;18.400;2024-03-23T13:50:07;3.50;;;1.33;;
74510;SDS011;62991;50.040;18.400;2024-03-23T13:53:08;5.53;;;1.23;;
74510;SDS011;62991;50.040;18.400;2024-03-23T13:56:08;7.90;;;3.47;;
74510;SDS011;62991;50.040;18.400;2024-03-23T13:59:09;6.50;;;2.63;;
74510;SDS011;62991;50.040;18.400;2024-03-23T14:02:10;6.18;;;2.63;;
74510;SDS011;62991;50.040;18.400;2024-03-23T14:05:11;10.93;;;2.30;;
74510;SDS011;62991;50.040;18.400;2024-03-23T14:08:12;8.57;;;3.50;;
74510;SDS011;62991;50.040;18.400;2024-03-23T14:11:13;4.00;;;1.58;;
74510;SDS011;62991;50.040;18.400;2024-03-23T14:14:14;10.48;;;3.65;;
74510;SDS011;62991;50.040;18.400;2024-03-23T14:17:17;7.50;;;2.80;;
74510;SDS011;62991;50.040;18.400;2024-03-23T14:20:18;4.60;;;2.15;;
74510;SDS011;62991;50.040;18.400;2024-03-23T14:23:19;5.65;;;2.25;;
74510;SDS011;62991;50.040;18.400;2024-03-23T14:26:20;7.90;;;2.63;;
74510;SDS011;62991;50.040;18.400;2024-03-23T14:29:20;17.98;;;4.82;;
74510;SDS011;62991;50.040;18.400;2024-03-23T14:32:21;9.82;;;3.85;;
74510;SDS011;62991;50.040;18.400;2024-03-23T14:35:22;9.98;;;4.20;;
74510;SDS011;62991;50.040;18.400;2024-03-23T14:38:23;9.88;;;3.70;;
74510;SDS011;62991;50.040;18.400;2024-03-23T14:41:24;5.45;;;2.50;;
74510;SDS011;62991;50.040;18.400;2024-03-23T14:44:25;6.57;;;2.28;;
74510;SDS011;62991;50.040;18.400;2024-03-23T14:47:26;6.65;;;2.95;;
74510;SDS011;62991;50.040;18.400;2024-03-23T14:50:27;24.05;;;7.03;;
74510;SDS011;62991;50.040;18.400;2024-03-23T14:53:27;11.48;;;5.50;;
74510;SDS011;62991;50.040;18.400;2024-03-23T14:56:29;23.98;;;7.20;;
74510;SDS011;62991;50.040;18.400;2024-03-23T14:59:30;16.70;;;5.07;;
74510;SDS011;62991;50.040;18.400;2024-03-23T15:02:31;24.60;;;5.88;;
74510;SDS011;62991;50.040;18.400;2024-03-23T15:05:32;10.93;;;3.25;;
74510;SDS011;62991;50.040;18.400;2024-03-23T15:08:32;7.78;;;2.63;;
74510;SDS011;62991;50.040;18.400;2024-03-23T15:11:33;6.15;;;3.00;;
74510;SDS011;62991;50.040;18.400;2024-03-23T15:14:34;4.03;;;2.15;;
74510;SDS011;62991;50.040;18.400;2024-03-23T15:17:34;8.30;;;2.95;;
74510;SDS011;62991;50.040;18.400;2024-03-23T15:20:37;5.65;;;2.35;;
74510;SDS011;62991;50.040;18.400;2024-03-23T15:23:37;6.90;;;3.55;;
74510;SDS011;62991;50.040;18.400;2024-03-23T15:26:38;39.72;;;12.10;;
74510;SDS011;62991;50.040;18.400;2024-03-23T15:29:39;37.60;;;13.98;;
74510;SDS011;62991;50.040;18.400;2024-03-23T15:32:40;28.67;;;11.18;;
74510;SDS011;62991;50.040;18.400;2024-03-23T15:35:40;11.43;;;5.68;;
74510;SDS011;62991;50.040;18.400;2024-03-23T15:38:41;34.17;;;10.27;;
74510;SDS011;62991;50.040;18.400;2024-03-23T15:41:46;26.20;;;9.25;;
74510;SDS011;62991;50.040;18.400;2024-03-23T15:44:47;33.17;;;11.63;;
74510;SDS011;62991;50.040;18.400;2024-03-23T15:47:47;22.65;;;8.35;;
74510;SDS011;62991;50.040;18.400;2024-03-23T15:50:51;12.57;;;5.63;;
74510;SDS011;62991;50.040;18.400;2024-03-23T15:53:53;14.65;;;5.55;;
74510;SDS011;62991;50.040;18.400;2024-03-23T15:56:57;11.63;;;3.83;;
74510;SDS011;62991;50.040;18.400;2024-03-23T15:59:58;11.73;;;4.18;;
74510;SDS011;62991;50.040;18.400;2024-03-23T16:02:58;11.57;;;4.22;;
74510;SDS011;62991;50.040;18.400;2024-03-23T16:06:00;8.15;;;3.30;;
74510;SDS011;62991;50.040;18.400;2024-03-23T16:09:01;6.45;;;2.58;;
74510;SDS011;62991;50.040;18.400;2024-03-23T16:12:02;5.60;;;2.70;;
74510;SDS011;62991;50.040;18.400;2024-03-23T16:15:03;5.78;;;2.65;;
74510;SDS011;62991;50.040;18.400;2024-03-23T16:18:05;2.95;;;1.77;;
74510;SDS011;62991;50.040;18.400;2024-03-23T16:21:07;5.90;;;2.33;;
74510;SDS011;62991;50.040;18.400;2024-03-23T16:24:08;3.67;;;1.98;;
74510;SDS011;62991;50.040;18.400;2024-03-23T16:27:08;4.72;;;2.50;;
74510;SDS011;62991;50.040;18.400;2024-03-23T16:30:09;5.85;;;2.45;;
74510;SDS011;62991;50.040;18.400;2024-03-23T16:33:10;5.60;;;2.35;;
74510;SDS011;62991;50.040;18.400;2024-03-23T16:36:11;4.03;;;2.50;;
74510;SDS011;62991;50.040;18.400;2024-03-23T16:39:12;3.38;;;1.63;;
74510;SDS011;62991;50.040;18.400;2024-03-23T16:42:15;0.95;;;0.55;;
74510;SDS011;62991;50.040;18.400;2024-03-23T16:45:16;3.60;;;1.27;;
74510;SDS011;62991;50.040;18.400;2024-03-23T16:48:16;3.08;;;1.45;;
74510;SDS011;62991;50.040;18.400;2024-03-23T16:51:17;1.92;;;1.10;;
74510;SDS011;62991;50.040;18.400;2024-03-23T16:54:18;2.55;;;1.05;;
74510;SDS011;62991;50.040;18.400;2024-03-23T16:57:18;3.38;;;1.33;;
74510;SDS011;62991;50.040;18.400;2024-03-23T17:00:19;3.22;;;2.00;;
74510;SDS011;62991;50.040;18.400;2024-03-23T17:03:20;5.05;;;2.35;;
74510;SDS011;62991;50.040;18.400;2024-03-23T17:06:20;2.83;;;1.80;;
74510;SDS011;62991;50.040;18.400;2024-03-23T17:09:24;3.97;;;1.70;;
74510;SDS011;62991;50.040;18.400;2024-03-23T17:12:24;3.00;;;1.73;;
74510;SDS011;62991;50.040;18.400;2024-03-23T17:15:25;3.33;;;1.83;;
74510;SDS011;62991;50.040;18.400;2024-03-23T17:18:26;1.65;;;1.05;;
74510;SDS011;62991;50.040;18.400;2024-03-23T17:21:26;2.13;;;1.42;;
74510;SDS011;62991;50.040;18.400;2024-03-23T17:24:27;3.60;;;1.85;;
74510;SDS011;62991;50.040;18.400;2024-03-23T17:27:28;8.10;;;2.47;;
74510;SDS011;62991;50.040;18.400;2024-03-23T17:30:29;4.28;;;1.92;;
74510;SDS011;62991;50.040;18.400;2024-03-23T17:33:29;4.65;;;1.92;;
74510;SDS011;62991;50.040;18.400;2024-03-23T17:36:30;6.30;;;2.35;;
74510;SDS011;62991;50.040;18.400;2024-03-23T17:39:31;0.73;;;0.57;;
74510;SDS011;62991;50.040;18.400;2024-03-23T17:42:32;5.50;;;2.20;;
74510;SDS011;62991;50.040;18.400;2024-03-23T17:45:33;8.35;;;2.53;;
74510;SDS011;62991;50.040;18.400;2024-03-23T17:48:34;7.28;;;2.85;;
74510;SDS011;62991;50.040;18.400;2024-03-23T17:51:34;3.83;;;1.40;;
74510;SDS011;62991;50.040;18.400;2024-03-23T17:54:35;2.10;;;1.33;;
74510;SDS011;62991;50.040;18.400;2024-03-23T17:57:36;3.25;;;1.55;;
74510;SDS011;62991;50.040;18.400;2024-03-23T18:00:37;3.33;;;1.73;;
74510;SDS011;62991;50.040;18.400;2024-03-23T18:03:38;7.50;;;2.38;;
74510;SDS011;62991;50.040;18.400;2024-03-23T18:06:38;5.38;;;2.28;;
74510;SDS011;62991;50.040;18.400;2024-03-23T18:09:39;4.13;;;1.75;;
74510;SDS011;62991;50.040;18.400;2024-03-23T18:12:40;4.63;;;1.13;;
74510;SDS011;62991;50.040;18.400;2024-03-23T18:15:40;4.60;;;1.42;;
74510;SDS011;62991;50.040;18.400;2024-03-23T18:18:41;3.85;;;1.98;;
74510;SDS011;62991;50.040;18.400;2024-03-23T18:21:42;4.15;;;1.80;;
74510;SDS011;62991;50.040;18.400;2024-03-23T18:24:43;2.42;;;1.30;;
74510;SDS011;62991;50.040;18.400;2024-03-23T18:27:43;2.60;;;1.52;;
74510;SDS011;62991;50.040;18.400;2024-03-23T18:30:44;1.67;;;1.58;;
74510;SDS011;62991;50.040;18.400;2024-03-23T18:33:45;1.60;;;1.10;;
74510;SDS011;62991;50.040;18.400;2024-03-23T18:36:46;3.90;;;1.60;;
74510;SDS011;62991;50.040;18.400;2024-03-23T18:39:47;1.17;;;1.08;;
74510;SDS011;62991;50.040;18.400;2024-03-23T18:42:48;5.57;;;2.65;;
74510;SDS011;62991;50.040;18.400;2024-03-23T18:45:49;4.55;;;2.05;;
74510;SDS011;62991;50.040;18.400;2024-03-23T18:48:50;3.88;;;1.52;;
74510;SDS011;62991;50.040;18.400;2024-03-23T18:51:51;5.93;;;1.63;;
74510;SDS011;62991;50.040;18.400;2024-03-23T18:54:52;3.95;;;2.28;;
74510;SDS011;62991;50.040;18.400;2024-03-23T18:57:54;6.15;;;2.80;;
74510;SDS011;62991;50.040;18.400;2024-03-23T19:00:57;4.63;;;1.88;;